sensor_id;sensor_type;location;lat;lon;timestamp;pressure;altitude;pressure_sealevel;temperature;humidity
62072;BME280;48031;48.542;13.232;2023-05-10T00:03:24;96650.19;;;20.22;40.01
62072;BME280;48031;48.542;13.232;2023-05-10T00:07:26;96639.22;;;20.43;39.22
62072;BME280;48031;48.542;13.232;2023-05-10T00:11:27;96637.03;;;20.28;40.52
62072;BME280;48031;48.542;13.232;2023-05-10T00:15:29;96644.94;;;20.38;39.60
62072;BME280;48031;48.542;13.232;2023-05-10T00:19:32;96656.38;;;20.49;39.01
62072;BME280;48031;48.542;13.232;2023-05-10T00:23:34;96656.91;;;20.42;38.77
62072;BME280;48031;48.542;13.232;2023-05-10T00:27:35;96661.81;;;20.37;39.16
62072;BME280;48031;48.542;13.232;2023-05-10T00:31:37;96642.66;;;20.02;38.84
62072;BME280;48031;48.542;13.232;2023-05-10T00:35:39;96647.47;;;20.14;39.29
62072;BME280;48031;48.542;13.232;2023-05-10T00:39:43;96652.06;;;20.01;39.48
62072;BME280;48031;48.542;13.232;2023-05-10T00:43:45;96652.78;;;20.19;39.38
62072;BME280;48031;48.542;13.232;2023-05-10T00:47:47;96653.88;;;19.97;39.71
62072;BME280;48031;48.542;13.232;2023-05-10T00:51:49;96643.78;;;20.01;39.36
62072;BME280;48031;48.542;13.232;2023-05-10T00:55:51;96644.72;;;20.14;39.07
62072;BME280;48031;48.542;13.232;2023-05-10T00:59:53;96658.19;;;20.07;39.58
62072;BME280;48031;48.542;13.232;2023-05-10T01:03:55;96660.91;;;19.77;39.84
62072;BME280;48031;48.542;13.232;2023-05-10T01:07:57;96660.75;;;19.82;39.66
62072;BME280;48031;48.542;13.232;2023-05-10T01:11:59;96656.69;;;19.80;40.16
62072;BME280;48031;48.542;13.232;2023-05-10T01:16:04;96656.22;;;19.78;39.87
62072;BME280;48031;48.542;13.232;2023-05-10T01:20:07;96652.50;;;20.12;39.81
62072;BME280;48031;48.542;13.232;2023-05-10T01:24:38;96650.97;;;19.93;39.86
62072;BME280;48031;48.542;13.232;2023-05-10T01:33:43;96650.19;;;20.22;39.34
62072;BME280;48031;48.542;13.232;2023-05-10T01:38:07;96651.09;;;20.35;39.95
62072;BME280;48031;48.542;13.232;2023-05-10T01:42:25;96654.91;;;20.22;39.98
62072;BME280;48031;48.542;13.232;2023-05-10T01:46:33;96656.44;;;20.40;39.46
62072;BME280;48031;48.542;13.232;2023-05-10T01:50:42;96653.78;;;20.14;40.03
62072;BME280;48031;48.542;13.232;2023-05-10T01:54:49;96648.34;;;20.06;39.90
62072;BME280;48031;48.542;13.232;2023-05-10T01:58:54;96657.56;;;20.01;40.37
62072;BME280;48031;48.542;13.232;2023-05-10T02:02:57;96659.75;;;19.78;40.26
62072;BME280;48031;48.542;13.232;2023-05-10T02:06:59;96657.81;;;19.87;40.72
62072;BME280;48031;48.542;13.232;2023-05-10T02:11:02;96663.56;;;20.03;40.08
62072;BME280;48031;48.542;13.232;2023-05-10T02:15:06;96665.50;;;20.03;40.28
62072;BME280;48031;48.542;13.232;2023-05-10T02:19:10;96672.25;;;20.22;39.94
62072;BME280;48031;48.542;13.232;2023-05-10T02:23:14;96665.25;;;20.25;39.93
62072;BME280;48031;48.542;13.232;2023-05-10T02:27:17;96669.66;;;20.17;40.64
62072;BME280;48031;48.542;13.232;2023-05-10T02:31:22;96670.38;;;20.06;40.15
62072;BME280;48031;48.542;13.232;2023-05-10T02:35:25;96661.72;;;20.16;40.76
62072;BME280;48031;48.542;13.232;2023-05-10T02:39:29;96658.56;;;20.34;40.53
62072;BME280;48031;48.542;13.232;2023-05-10T02:43:33;96664.50;;;20.07;40.83
62072;BME280;48031;48.542;13.232;2023-05-10T02:47:35;96663.88;;;20.10;40.54
62072;BME280;48031;48.542;13.232;2023-05-10T02:51:41;96668.03;;;20.54;40.36
62072;BME280;48031;48.542;13.232;2023-05-10T02:55:45;96672.06;;;20.27;40.26
62072;BME280;48031;48.542;13.232;2023-05-10T02:59:49;96673.41;;;20.13;40.64
62072;BME280;48031;48.542;13.232;2023-05-10T03:03:50;96665.94;;;20.13;40.64
62072;BME280;48031;48.542;13.232;2023-05-10T03:07:53;96668.69;;;20.22;40.63
62072;BME280;48031;48.542;13.232;2023-05-10T03:12:23;96673.88;;;20.73;40.15
62072;BME280;48031;48.542;13.232;2023-05-10T03:16:35;96657.84;;;20.46;41.44
62072;BME280;48031;48.542;13.232;2023-05-10T03:20:49;96664.50;;;20.45;41.81
62072;BME280;48031;48.542;13.232;2023-05-10T03:24:56;96670.88;;;20.28;42.35
62072;BME280;48031;48.542;13.232;2023-05-10T03:29:06;96672.31;;;20.05;42.72
62072;BME280;48031;48.542;13.232;2023-05-10T03:33:08;96674.66;;;19.86;42.97
62072;BME280;48031;48.542;13.232;2023-05-10T03:37:14;96673.44;;;19.66;45.31
62072;BME280;48031;48.542;13.232;2023-05-10T03:41:17;96674.88;;;19.72;45.07
62072;BME280;48031;48.542;13.232;2023-05-10T03:45:19;96665.44;;;19.82;44.01
62072;BME280;48031;48.542;13.232;2023-05-10T03:49:22;96664.94;;;19.80;42.98
62072;BME280;48031;48.542;13.232;2023-05-10T03:53:24;96670.00;;;19.69;44.99
62072;BME280;48031;48.542;13.232;2023-05-10T03:57:26;96674.16;;;19.84;43.64
62072;BME280;48031;48.542;13.232;2023-05-10T04:01:29;96674.88;;;19.72;44.55
62072;BME280;48031;48.542;13.232;2023-05-10T04:05:31;96677.91;;;19.79;43.66
62072;BME280;48031;48.542;13.232;2023-05-10T04:09:33;96680.03;;;19.82;43.33
62072;BME280;48031;48.542;13.232;2023-05-10T04:13:37;96681.75;;;19.96;43.06
62072;BME280;48031;48.542;13.232;2023-05-10T04:17:39;96674.84;;;19.81;43.47
62072;BME280;48031;48.542;13.232;2023-05-10T04:21:41;96681.47;;;19.80;42.97
62072;BME280;48031;48.542;13.232;2023-05-10T04:25:43;96682.84;;;20.03;43.75
62072;BME280;48031;48.542;13.232;2023-05-10T04:29:46;96693.38;;;20.01;44.42
62072;BME280;48031;48.542;13.232;2023-05-10T04:33:48;96695.69;;;19.90;44.14
62072;BME280;48031;48.542;13.232;2023-05-10T04:37:52;96694.38;;;19.97;44.64
62072;BME280;48031;48.542;13.232;2023-05-10T04:41:54;96692.31;;;19.85;44.95
62072;BME280;48031;48.542;13.232;2023-05-10T04:45:57;96684.97;;;19.98;45.01
62072;BME280;48031;48.542;13.232;2023-05-10T04:49:59;96697.44;;;20.04;45.47
62072;BME280;48031;48.542;13.232;2023-05-10T04:54:01;96692.94;;;19.99;45.67
62072;BME280;48031;48.542;13.232;2023-05-10T04:58:07;96700.06;;;19.91;45.48
62072;BME280;48031;48.542;13.232;2023-05-10T05:02:09;96692.03;;;19.78;46.07
62072;BME280;48031;48.542;13.232;2023-05-10T05:06:11;96696.38;;;19.79;46.32
62072;BME280;48031;48.542;13.232;2023-05-10T05:10:13;96686.00;;;19.84;46.61
62072;BME280;48031;48.542;13.232;2023-05-10T05:14:15;96699.47;;;19.77;47.04
62072;BME280;48031;48.542;13.232;2023-05-10T05:18:17;96697.53;;;19.78;47.38
62072;BME280;48031;48.542;13.232;2023-05-10T05:22:19;96704.13;;;19.94;46.91
62072;BME280;48031;48.542;13.232;2023-05-10T05:26:28;96699.66;;;19.72;48.55
62072;BME280;48031;48.542;13.232;2023-05-10T05:30:30;96706.47;;;19.40;49.94
62072;BME280;48031;48.542;13.232;2023-05-10T05:34:31;96707.13;;;19.46;50.81
62072;BME280;48031;48.542;13.232;2023-05-10T05:38:33;96695.50;;;19.49;52.11
62072;BME280;48031;48.542;13.232;2023-05-10T05:42:35;96703.91;;;19.61;52.43
62072;BME280;48031;48.542;13.232;2023-05-10T05:46:36;96714.75;;;19.49;52.70
62072;BME280;48031;48.542;13.232;2023-05-10T05:50:38;96721.72;;;19.55;53.13
62072;BME280;48031;48.542;13.232;2023-05-10T05:54:40;96711.03;;;19.54;53.74
62072;BME280;48031;48.542;13.232;2023-05-10T05:58:42;96717.50;;;19.49;53.55
62072;BME280;48031;48.542;13.232;2023-05-10T06:02:43;96719.91;;;19.42;53.83
62072;BME280;48031;48.542;13.232;2023-05-10T06:06:46;96725.59;;;19.54;53.59
62072;BME280;48031;48.542;13.232;2023-05-10T06:10:47;96716.19;;;19.64;53.03
62072;BME280;48031;48.542;13.232;2023-05-10T06:14:49;96725.09;;;19.61;53.75
62072;BME280;48031;48.542;13.232;2023-05-10T06:18:51;96733.97;;;19.75;53.96
62072;BME280;48031;48.542;13.232;2023-05-10T06:22:53;96730.06;;;19.84;54.61
62072;BME280;48031;48.542;13.232;2023-05-10T06:26:54;96732.84;;;19.41;56.29
62072;BME280;48031;48.542;13.232;2023-05-10T06:30:56;96743.22;;;19.36;57.48
62072;BME280;48031;48.542;13.232;2023-05-10T06:34:58;96739.81;;;19.65;56.12
62072;BME280;48031;48.542;13.232;2023-05-10T06:39:00;96747.75;;;18.97;58.36
62072;BME280;48031;48.542;13.232;2023-05-10T06:43:01;96744.66;;;18.90;58.24
62072;BME280;48031;48.542;13.232;2023-05-10T06:47:03;96746.63;;;18.98;58.54
62072;BME280;48031;48.542;13.232;2023-05-10T06:51:05;96746.47;;;19.38;57.91
62072;BME280;48031;48.542;13.232;2023-05-10T06:55:07;96745.66;;;19.63;58.48
62072;BME280;48031;48.542;13.232;2023-05-10T06:59:10;96753.59;;;19.39;58.26
62072;BME280;48031;48.542;13.232;2023-05-10T07:03:12;96755.19;;;19.40;59.84
62072;BME280;48031;48.542;13.232;2023-05-10T07:07:14;96754.72;;;19.72;58.43
62072;BME280;48031;48.542;13.232;2023-05-10T07:11:16;96753.56;;;19.73;58.82
62072;BME280;48031;48.542;13.232;2023-05-10T07:15:18;96751.13;;;19.89;58.46
62072;BME280;48031;48.542;13.232;2023-05-10T07:19:20;96747.59;;;19.71;59.24
62072;BME280;48031;48.542;13.232;2023-05-10T07:23:21;96754.16;;;20.05;59.27
62072;BME280;48031;48.542;13.232;2023-05-10T07:27:23;96755.88;;;20.18;58.86
62072;BME280;48031;48.542;13.232;2023-05-10T07:31:25;96749.38;;;20.31;58.85
62072;BME280;48031;48.542;13.232;2023-05-10T07:35:27;96755.47;;;20.45;59.21
62072;BME280;48031;48.542;13.232;2023-05-10T07:39:28;96748.09;;;20.66;58.81
62072;BME280;48031;48.542;13.232;2023-05-10T07:43:30;96753.59;;;20.37;60.00
62072;BME280;48031;48.542;13.232;2023-05-10T07:47:32;96757.81;;;20.72;59.36
62072;BME280;48031;48.542;13.232;2023-05-10T07:51:34;96760.72;;;20.97;59.41
62072;BME280;48031;48.542;13.232;2023-05-10T07:55:36;96758.84;;;20.89;59.64
62072;BME280;48031;48.542;13.232;2023-05-10T07:59:37;96759.50;;;21.15;59.54
62072;BME280;48031;48.542;13.232;2023-05-10T08:03:39;96754.16;;;21.51;58.07
62072;BME280;48031;48.542;13.232;2023-05-10T08:07:41;96758.81;;;21.60;58.59
62072;BME280;48031;48.542;13.232;2023-05-10T08:11:44;96764.47;;;21.42;59.00
62072;BME280;48031;48.542;13.232;2023-05-10T08:15:45;96762.72;;;21.58;58.78
62072;BME280;48031;48.542;13.232;2023-05-10T08:19:48;96769.44;;;21.70;58.52
62072;BME280;48031;48.542;13.232;2023-05-10T08:23:50;96766.09;;;21.43;59.40
62072;BME280;48031;48.542;13.232;2023-05-10T08:27:51;96771.94;;;21.42;59.67
62072;BME280;48031;48.542;13.232;2023-05-10T08:31:53;96782.38;;;21.36;59.63
62072;BME280;48031;48.542;13.232;2023-05-10T08:35:55;96779.38;;;21.00;59.44
62072;BME280;48031;48.542;13.232;2023-05-10T08:39:56;96779.22;;;21.26;58.34
62072;BME280;48031;48.542;13.232;2023-05-10T08:43:58;96785.28;;;21.19;59.41
62072;BME280;48031;48.542;13.232;2023-05-10T08:48:05;96787.91;;;21.15;60.31
62072;BME280;48031;48.542;13.232;2023-05-10T08:52:07;96787.09;;;21.15;60.52
62072;BME280;48031;48.542;13.232;2023-05-10T08:56:09;96796.19;;;20.48;61.93
62072;BME280;48031;48.542;13.232;2023-05-10T09:00:12;96810.00;;;20.31;61.80
62072;BME280;48031;48.542;13.232;2023-05-10T09:04:14;96824.78;;;20.18;63.15
62072;BME280;48031;48.542;13.232;2023-05-10T09:08:17;96823.16;;;20.34;62.81
62072;BME280;48031;48.542;13.232;2023-05-10T09:12:19;96824.53;;;19.68;64.03
62072;BME280;48031;48.542;13.232;2023-05-10T09:16:21;96835.97;;;20.13;63.57
62072;BME280;48031;48.542;13.232;2023-05-10T09:20:23;96840.72;;;20.04;64.00
62072;BME280;48031;48.542;13.232;2023-05-10T09:24:26;96847.81;;;20.22;63.89
62072;BME280;48031;48.542;13.232;2023-05-10T09:28:31;96848.97;;;20.76;62.71
62072;BME280;48031;48.542;13.232;2023-05-10T09:32:38;96848.22;;;20.58;62.85
62072;BME280;48031;48.542;13.232;2023-05-10T09:36:53;96840.03;;;20.32;62.59
62072;BME280;48031;48.542;13.232;2023-05-10T09:40:55;96850.63;;;19.87;64.27
62072;BME280;48031;48.542;13.232;2023-05-10T09:45:05;96858.75;;;20.65;63.39
62072;BME280;48031;48.542;13.232;2023-05-10T09:49:08;96853.84;;;19.98;64.08
62072;BME280;48031;48.542;13.232;2023-05-10T09:53:14;96856.72;;;20.45;62.80
62072;BME280;48031;48.542;13.232;2023-05-10T09:57:23;96856.66;;;20.53;61.88
62072;BME280;48031;48.542;13.232;2023-05-10T10:01:26;96858.19;;;20.33;64.26
62072;BME280;48031;48.542;13.232;2023-05-10T10:05:33;96866.63;;;21.13;61.88
62072;BME280;48031;48.542;13.232;2023-05-10T10:09:35;96863.84;;;21.51;61.10
62072;BME280;48031;48.542;13.232;2023-05-10T10:13:37;96870.31;;;20.24;62.85
62072;BME280;48031;48.542;13.232;2023-05-10T10:17:39;96858.53;;;20.79;63.23
62072;BME280;48031;48.542;13.232;2023-05-10T10:21:41;96858.16;;;20.42;61.99
62072;BME280;48031;48.542;13.232;2023-05-10T10:25:44;96865.06;;;21.03;62.70
62072;BME280;48031;48.542;13.232;2023-05-10T10:29:58;96861.38;;;20.91;62.11
62072;BME280;48031;48.542;13.232;2023-05-10T10:34:06;96861.75;;;20.81;62.15
62072;BME280;48031;48.542;13.232;2023-05-10T10:38:09;96864.06;;;21.08;60.32
62072;BME280;48031;48.542;13.232;2023-05-10T10:42:11;96867.25;;;21.27;61.01
62072;BME280;48031;48.542;13.232;2023-05-10T10:50:15;96868.25;;;21.23;60.82
62072;BME280;48031;48.542;13.232;2023-05-10T10:54:27;96861.22;;;21.25;60.27
62072;BME280;48031;48.542;13.232;2023-05-10T10:58:30;96868.19;;;21.31;61.47
62072;BME280;48031;48.542;13.232;2023-05-10T11:02:45;96862.47;;;22.19;60.09
62072;BME280;48031;48.542;13.232;2023-05-10T11:06:49;96866.00;;;21.45;59.63
62072;BME280;48031;48.542;13.232;2023-05-10T11:15:02;96873.34;;;21.62;60.20
62072;BME280;48031;48.542;13.232;2023-05-10T11:19:09;96861.03;;;22.01;59.49
62072;BME280;48031;48.542;13.232;2023-05-10T11:23:13;96858.28;;;22.01;60.09
62072;BME280;48031;48.542;13.232;2023-05-10T11:27:17;96866.34;;;22.06;59.73
62072;BME280;48031;48.542;13.232;2023-05-10T11:31:19;96856.38;;;22.26;58.38
62072;BME280;48031;48.542;13.232;2023-05-10T11:35:21;96861.16;;;22.37;57.95
62072;BME280;48031;48.542;13.232;2023-05-10T11:39:31;96863.22;;;22.86;57.67
62072;BME280;48031;48.542;13.232;2023-05-10T11:43:33;96863.03;;;22.58;57.70
62072;BME280;48031;48.542;13.232;2023-05-10T11:47:35;96870.34;;;22.62;56.33
62072;BME280;48031;48.542;13.232;2023-05-10T11:51:38;96864.50;;;22.76;57.95
62072;BME280;48031;48.542;13.232;2023-05-10T11:55:40;96868.34;;;22.51;58.40
62072;BME280;48031;48.542;13.232;2023-05-10T11:59:42;96870.97;;;22.47;57.68
62072;BME280;48031;48.542;13.232;2023-05-10T12:03:44;96863.09;;;22.37;56.53
62072;BME280;48031;48.542;13.232;2023-05-10T12:07:46;96871.34;;;22.25;57.63
62072;BME280;48031;48.542;13.232;2023-05-10T12:11:48;96876.25;;;22.85;56.17
62072;BME280;48031;48.542;13.232;2023-05-10T12:15:50;96875.03;;;22.50;56.08
62072;BME280;48031;48.542;13.232;2023-05-10T12:19:52;96871.88;;;22.96;55.10
62072;BME280;48031;48.542;13.232;2023-05-10T12:23:58;96881.78;;;22.85;56.12
62072;BME280;48031;48.542;13.232;2023-05-10T12:28:03;96876.63;;;23.08;54.36
62072;BME280;48031;48.542;13.232;2023-05-10T12:32:05;96874.91;;;23.15;55.21
62072;BME280;48031;48.542;13.232;2023-05-10T12:36:08;96873.03;;;22.83;56.29
62072;BME280;48031;48.542;13.232;2023-05-10T12:40:11;96877.91;;;23.10;54.15
62072;BME280;48031;48.542;13.232;2023-05-10T12:44:13;96880.78;;;23.38;56.04
62072;BME280;48031;48.542;13.232;2023-05-10T12:48:15;96890.13;;;23.58;55.15
62072;BME280;48031;48.542;13.232;2023-05-10T12:52:17;96882.34;;;23.88;54.72
62072;BME280;48031;48.542;13.232;2023-05-10T12:56:18;96882.59;;;23.71;53.57
62072;BME280;48031;48.542;13.232;2023-05-10T13:00:20;96888.59;;;23.85;51.50
62072;BME280;48031;48.542;13.232;2023-05-10T13:04:22;96883.38;;;23.95;52.25
62072;BME280;48031;48.542;13.232;2023-05-10T13:08:24;96889.38;;;23.85;52.87
62072;BME280;48031;48.542;13.232;2023-05-10T13:12:26;96881.69;;;23.79;56.16
62072;BME280;48031;48.542;13.232;2023-05-10T13:16:28;96885.66;;;23.93;53.82
62072;BME280;48031;48.542;13.232;2023-05-10T13:20:30;96889.94;;;23.51;55.78
62072;BME280;48031;48.542;13.232;2023-05-10T13:24:31;96882.81;;;23.90;53.79
62072;BME280;48031;48.542;13.232;2023-05-10T13:28:33;96877.34;;;23.93;54.44
62072;BME280;48031;48.542;13.232;2023-05-10T13:32:35;96874.97;;;24.20;52.80
62072;BME280;48031;48.542;13.232;2023-05-10T13:36:37;96870.19;;;23.92;52.79
62072;BME280;48031;48.542;13.232;2023-05-10T13:40:39;96872.56;;;23.66;53.61
62072;BME280;48031;48.542;13.232;2023-05-10T13:44:41;96869.81;;;23.54;50.69
62072;BME280;48031;48.542;13.232;2023-05-10T13:48:43;96872.81;;;23.61;52.73
62072;BME280;48031;48.542;13.232;2023-05-10T13:52:44;96859.59;;;24.22;52.68
62072;BME280;48031;48.542;13.232;2023-05-10T13:56:46;96870.59;;;24.19;51.52
62072;BME280;48031;48.542;13.232;2023-05-10T14:00:49;96860.72;;;24.33;47.58
62072;BME280;48031;48.542;13.232;2023-05-10T14:04:51;96867.28;;;24.57;54.53
62072;BME280;48031;48.542;13.232;2023-05-10T14:08:53;96858.19;;;24.88;54.04
62072;BME280;48031;48.542;13.232;2023-05-10T14:12:55;96862.03;;;24.83;48.61
62072;BME280;48031;48.542;13.232;2023-05-10T14:16:57;96865.03;;;25.06;46.50
62072;BME280;48031;48.542;13.232;2023-05-10T14:20:58;96864.06;;;24.86;47.52
62072;BME280;48031;48.542;13.232;2023-05-10T14:25:00;96851.09;;;25.37;45.84
62072;BME280;48031;48.542;13.232;2023-05-10T14:29:02;96851.41;;;25.01;49.81
62072;BME280;48031;48.542;13.232;2023-05-10T14:33:04;96856.78;;;24.94;46.20
62072;BME280;48031;48.542;13.232;2023-05-10T14:37:10;96862.16;;;25.18;46.43
62072;BME280;48031;48.542;13.232;2023-05-10T14:41:12;96859.81;;;24.89;48.90
62072;BME280;48031;48.542;13.232;2023-05-10T14:45:16;96854.50;;;24.68;49.35
62072;BME280;48031;48.542;13.232;2023-05-10T14:49:18;96858.25;;;24.04;45.65
62072;BME280;48031;48.542;13.232;2023-05-10T14:53:20;96864.16;;;24.02;48.99
62072;BME280;48031;48.542;13.232;2023-05-10T14:57:22;96850.97;;;24.39;48.37
62072;BME280;48031;48.542;13.232;2023-05-10T15:01:24;96857.66;;;24.11;50.56
62072;BME280;48031;48.542;13.232;2023-05-10T15:05:26;96856.72;;;23.79;49.40
62072;BME280;48031;48.542;13.232;2023-05-10T15:09:28;96852.94;;;23.59;48.74
62072;BME280;48031;48.542;13.232;2023-05-10T15:13:30;96856.63;;;24.03;47.53
62072;BME280;48031;48.542;13.232;2023-05-10T15:17:32;96864.81;;;24.12;52.19
62072;BME280;48031;48.542;13.232;2023-05-10T15:21:34;96863.50;;;23.93;53.04
62072;BME280;48031;48.542;13.232;2023-05-10T15:25:40;96867.03;;;24.06;52.38
62072;BME280;48031;48.542;13.232;2023-05-10T15:29:42;96871.97;;;23.85;54.21
62072;BME280;48031;48.542;13.232;2023-05-10T15:33:44;96872.53;;;23.90;54.16
62072;BME280;48031;48.542;13.232;2023-05-10T15:37:47;96867.13;;;24.10;54.93
62072;BME280;48031;48.542;13.232;2023-05-10T15:41:50;96874.53;;;23.66;53.06
62072;BME280;48031;48.542;13.232;2023-05-10T15:45:52;96875.44;;;23.70;55.57
62072;BME280;48031;48.542;13.232;2023-05-10T15:49:54;96879.25;;;23.41;54.05
62072;BME280;48031;48.542;13.232;2023-05-10T15:53:56;96877.09;;;23.34;55.90
62072;BME280;48031;48.542;13.232;2023-05-10T15:58:08;96870.06;;;23.12;53.14
62072;BME280;48031;48.542;13.232;2023-05-10T16:02:11;96873.56;;;22.31;52.43
62072;BME280;48031;48.542;13.232;2023-05-10T16:06:13;96876.63;;;21.55;53.41
62072;BME280;48031;48.542;13.232;2023-05-10T16:10:14;96876.47;;;21.31;55.53
62072;BME280;48031;48.542;13.232;2023-05-10T16:14:17;96879.09;;;20.26;57.55
62072;BME280;48031;48.542;13.232;2023-05-10T16:18:21;96881.94;;;21.40;58.46
62072;BME280;48031;48.542;13.232;2023-05-10T16:22:24;96875.94;;;21.58;58.54
62072;BME280;48031;48.542;13.232;2023-05-10T16:26:29;96883.91;;;21.39;58.59
62072;BME280;48031;48.542;13.232;2023-05-10T16:30:31;96885.44;;;19.92;59.75
62072;BME280;48031;48.542;13.232;2023-05-10T16:34:33;96889.31;;;19.91;57.69
62072;BME280;48031;48.542;13.232;2023-05-10T16:38:34;96891.91;;;20.13;57.11
62072;BME280;48031;48.542;13.232;2023-05-10T16:42:36;96900.00;;;20.44;57.48
62072;BME280;48031;48.542;13.232;2023-05-10T16:46:38;96900.19;;;19.87;58.05
62072;BME280;48031;48.542;13.232;2023-05-10T16:50:43;96904.03;;;20.55;58.17
62072;BME280;48031;48.542;13.232;2023-05-10T16:54:45;96905.00;;;20.97;57.36
62072;BME280;48031;48.542;13.232;2023-05-10T16:58:47;96912.59;;;19.42;60.14
62072;BME280;48031;48.542;13.232;2023-05-10T17:02:52;96914.44;;;19.89;60.00
62072;BME280;48031;48.542;13.232;2023-05-10T17:06:55;96918.66;;;20.13;59.68
62072;BME280;48031;48.542;13.232;2023-05-10T17:11:00;96917.22;;;20.32;60.00
62072;BME280;48031;48.542;13.232;2023-05-10T17:15:02;96924.31;;;19.73;60.97
62072;BME280;48031;48.542;13.232;2023-05-10T17:19:05;96919.94;;;19.55;61.45
62072;BME280;48031;48.542;13.232;2023-05-10T17:23:07;96928.72;;;20.00;60.09
62072;BME280;48031;48.542;13.232;2023-05-10T17:27:09;96932.22;;;19.58;60.97
62072;BME280;48031;48.542;13.232;2023-05-10T17:31:11;96943.94;;;19.24;62.94
62072;BME280;48031;48.542;13.232;2023-05-10T17:35:13;96937.06;;;19.52;60.74
62072;BME280;48031;48.542;13.232;2023-05-10T17:39:15;96949.41;;;19.15;62.53
62072;BME280;48031;48.542;13.232;2023-05-10T17:43:17;96955.59;;;19.77;60.20
62072;BME280;48031;48.542;13.232;2023-05-10T17:47:19;96964.03;;;18.62;61.64
62072;BME280;48031;48.542;13.232;2023-05-10T17:51:21;96968.00;;;18.79;62.41
62072;BME280;48031;48.542;13.232;2023-05-10T17:55:22;96974.00;;;18.14;63.57
62072;BME280;48031;48.542;13.232;2023-05-10T17:59:24;96977.44;;;18.55;62.78
62072;BME280;48031;48.542;13.232;2023-05-10T18:03:26;96979.84;;;19.19;60.81
62072;BME280;48031;48.542;13.232;2023-05-10T18:07:28;96981.03;;;18.95;61.10
62072;BME280;48031;48.542;13.232;2023-05-10T18:11:34;96981.47;;;19.20;60.65
62072;BME280;48031;48.542;13.232;2023-05-10T18:15:42;96978.28;;;19.26;61.58
62072;BME280;48031;48.542;13.232;2023-05-10T18:19:44;96981.91;;;19.04;60.64
62072;BME280;48031;48.542;13.232;2023-05-10T18:23:46;96985.03;;;19.20;60.50
62072;BME280;48031;48.542;13.232;2023-05-10T18:27:48;97005.53;;;19.05;60.54
62072;BME280;48031;48.542;13.232;2023-05-10T18:31:49;96992.47;;;19.20;61.11
62072;BME280;48031;48.542;13.232;2023-05-10T18:35:51;96993.53;;;19.41;61.75
62072;BME280;48031;48.542;13.232;2023-05-10T18:39:53;96993.81;;;19.31;61.30
62072;BME280;48031;48.542;13.232;2023-05-10T18:43:55;97009.38;;;19.35;61.45
62072;BME280;48031;48.542;13.232;2023-05-10T18:47:57;97008.91;;;19.33;60.95
62072;BME280;48031;48.542;13.232;2023-05-10T18:51:58;97017.94;;;19.65;60.52
62072;BME280;48031;48.542;13.232;2023-05-10T18:56:00;97017.31;;;19.37;60.47
62072;BME280;48031;48.542;13.232;2023-05-10T19:00:02;97016.97;;;19.61;60.64
62072;BME280;48031;48.542;13.232;2023-05-10T19:04:05;97021.16;;;19.58;60.38
62072;BME280;48031;48.542;13.232;2023-05-10T19:08:08;97026.34;;;19.68;59.56
62072;BME280;48031;48.542;13.232;2023-05-10T19:12:10;97022.78;;;19.68;59.50
62072;BME280;48031;48.542;13.232;2023-05-10T19:16:12;97026.19;;;19.65;60.19
62072;BME280;48031;48.542;13.232;2023-05-10T19:20:16;97036.28;;;19.78;58.87
62072;BME280;48031;48.542;13.232;2023-05-10T19:24:18;97028.16;;;19.33;59.83
62072;BME280;48031;48.542;13.232;2023-05-10T19:28:23;97033.19;;;19.71;59.63
62072;BME280;48031;48.542;13.232;2023-05-10T19:32:26;97035.75;;;19.67;59.61
62072;BME280;48031;48.542;13.232;2023-05-10T19:36:27;97042.59;;;19.39;60.40
62072;BME280;48031;48.542;13.232;2023-05-10T19:40:29;97042.78;;;18.89;60.82
62072;BME280;48031;48.542;13.232;2023-05-10T19:44:31;97050.19;;;18.80;60.73
62072;BME280;48031;48.542;13.232;2023-05-10T19:48:33;97046.16;;;18.55;61.63
62072;BME280;48031;48.542;13.232;2023-05-10T19:52:35;97042.59;;;19.08;61.14
62072;BME280;48031;48.542;13.232;2023-05-10T19:56:36;97036.81;;;18.87;61.95
62072;BME280;48031;48.542;13.232;2023-05-10T20:00:38;97053.06;;;18.39;61.85
62072;BME280;48031;48.542;13.232;2023-05-10T20:04:40;97048.09;;;18.77;61.67
62072;BME280;48031;48.542;13.232;2023-05-10T20:08:42;97046.56;;;18.93;61.64
62072;BME280;48031;48.542;13.232;2023-05-10T20:12:46;97041.16;;;19.10;61.67
62072;BME280;48031;48.542;13.232;2023-05-10T20:16:51;97043.91;;;19.10;61.05
62072;BME280;48031;48.542;13.232;2023-05-10T20:20:54;97040.25;;;18.93;61.53
62072;BME280;48031;48.542;13.232;2023-05-10T20:24:56;97046.75;;;18.75;61.58
62072;BME280;48031;48.542;13.232;2023-05-10T20:28:59;97039.97;;;19.03;61.18
62072;BME280;48031;48.542;13.232;2023-05-10T20:33:00;97036.72;;;19.01;61.14
62072;BME280;48031;48.542;13.232;2023-05-10T20:37:04;97046.19;;;19.17;61.34
62072;BME280;48031;48.542;13.232;2023-05-10T20:41:06;97032.69;;;18.98;61.92
62072;BME280;48031;48.542;13.232;2023-05-10T20:45:08;97039.44;;;18.92;62.26
62072;BME280;48031;48.542;13.232;2023-05-10T20:49:10;97042.94;;;18.62;62.34
62072;BME280;48031;48.542;13.232;2023-05-10T20:53:12;97040.41;;;18.65;62.64
62072;BME280;48031;48.542;13.232;2023-05-10T20:57:15;97036.16;;;18.59;62.82
62072;BME280;48031;48.542;13.232;2023-05-10T21:01:16;97043.84;;;18.35;62.65
62072;BME280;48031;48.542;13.232;2023-05-10T21:05:18;97039.19;;;18.58;62.83
62072;BME280;48031;48.542;13.232;2023-05-10T21:09:20;97033.09;;;18.83;62.55
62072;BME280;48031;48.542;13.232;2023-05-10T21:13:22;97031.94;;;18.62;62.44
62072;BME280;48031;48.542;13.232;2023-05-10T21:17:23;97034.34;;;18.55;63.33
62072;BME280;48031;48.542;13.232;2023-05-10T21:21:25;97038.47;;;18.30;63.28
62072;BME280;48031;48.542;13.232;2023-05-10T21:25:27;97028.25;;;18.44;63.81